Time;durP1;ratioP1;P1;durP2;ratioP2;P2;SDS_P1;SDS_P2;PMS_P1;PMS_P2;Temp;Humidity;BMP_temperature;BMP_pressure;BME280_temperature;BME280_humidity;BME280_pressure;Samples;Min_cycle;Max_cycle;Signal;HPM_P1;HPM_P2
2022/12/12 00:01:18;;;;;;;40.60;14.68;;;;;;;;;;5033704;28;20069;-77
2022/12/12 00:03:45;;;;;;;37.38;14.30;;;;;;;;;;5034773;28;20060;-78
2022/12/12 00:06:11;;;;;;;34.97;13.93;;;;;;;;;;5034644;28;20026;-78
2022/12/12 00:08:37;;;;;;;31.08;12.95;;;;;;;;;;5036921;28;20026;-79
2022/12/12 00:11:03;;;;;;;36.53;15.30;;;;;;;;;;5043193;28;20045;-78
2022/12/12 00:13:30;;;;;;;43.35;13.02;;;;;;;;;;5035369;28;20090;-78
2022/12/12 00:15:56;;;;;;;37.55;14.02;;;;;;;;;;5042734;28;20034;-79
2022/12/12 00:18:22;;;;;;;41.17;12.50;;;;;;;;;;5038013;28;20080;-78
2022/12/12 00:20:52;;;;;;;30.75;11.55;;;;;;;;;;5038361;28;20018;-78
2022/12/12 00:23:18;;;;;;;35.10;12.38;;;;;;;;;;5033365;28;20139;-78
2022/12/12 00:25:44;;;;;;;35.50;12.25;;;;;;;;;;5037315;28;20036;-79
2022/12/12 00:28:10;;;;;;;45.08;12.55;;;;;;;;;;5034073;28;20286;-79
2022/12/12 00:30:36;;;;;;;33.22;12.80;;;;;;;;;;5031716;28;20403;-79
2022/12/12 00:33:02;;;;;;;28.30;12.60;;;;;;;;;;5046583;28;20083;-80
2022/12/12 00:35:28;;;;;;;41.78;12.85;;;;;;;;;;5034453;28;20032;-78
2022/12/12 00:37:54;;;;;;;26.77;10.98;;;;;;;;;;5035162;28;20025;-77
2022/12/12 00:40:20;;;;;;;30.88;11.07;;;;;;;;;;5037914;28;20028;-82
2022/12/12 00:42:47;;;;;;;25.50;9.52;;;;;;;;;;5049617;28;20028;-77
2022/12/12 00:45:13;;;;;;;36.60;12.10;;;;;;;;;;5031857;28;20075;-78
2022/12/12 00:47:39;;;;;;;51.80;12.52;;;;;;;;;;5039210;28;20014;-77
2022/12/12 00:50:05;;;;;;;40.08;11.90;;;;;;;;;;5035742;28;20059;-78
2022/12/12 00:52:31;;;;;;;39.42;11.77;;;;;;;;;;5029557;28;20056;-79
2022/12/12 00:54:57;;;;;;;41.85;11.55;;;;;;;;;;5034863;28;20116;-78
2022/12/12 00:57:23;;;;;;;48.70;11.32;;;;;;;;;;5037316;28;20022;-79
2022/12/12 00:59:49;;;;;;;34.35;11.95;;;;;;;;;;5036466;28;20029;-78
2022/12/12 01:02:15;;;;;;;27.70;11.90;;;;;;;;;;5057861;28;20048;-78
2022/12/12 01:04:42;;;;;;;23.35;10.85;;;;;;;;;;5054466;28;20033;-76
2022/12/12 01:07:08;;;;;;;34.92;12.65;;;;;;;;;;5052360;28;20024;-77
2022/12/12 01:09:34;;;;;;;31.63;12.05;;;;;;;;;;5055151;28;20071;-79
2022/12/12 01:12:00;;;;;;;44.63;11.32;;;;;;;;;;5047799;28;20423;-78
2022/12/12 01:14:26;;;;;;;33.78;11.43;;;;;;;;;;5034229;28;20152;-79
2022/12/12 01:16:52;;;;;;;33.17;10.80;;;;;;;;;;5027077;28;20026;-77
2022/12/12 01:19:18;;;;;;;42.80;13.18;;;;;;;;;;5045618;28;20393;-77
2022/12/12 01:21:44;;;;;;;35.00;11.43;;;;;;;;;;5031651;28;20379;-78
2022/12/12 01:24:10;;;;;;;36.53;11.65;;;;;;;;;;5026675;28;20037;-79
2022/12/12 01:26:36;;;;;;;47.60;11.65;;;;;;;;;;5034753;28;20541;-78
2022/12/12 01:29:02;;;;;;;22.95;10.80;;;;;;;;;;5036451;28;20034;-78
2022/12/12 01:31:29;;;;;;;40.90;11.00;;;;;;;;;;5053373;28;20054;-78
2022/12/12 01:33:55;;;;;;;55.97;12.02;;;;;;;;;;5036552;28;20029;-77
2022/12/12 01:36:22;;;;;;;39.70;12.20;;;;;;;;;;5035146;28;20081;-77
2022/12/12 01:38:49;;;;;;;32.58;12.35;;;;;;;;;;5028177;28;20053;-76
2022/12/12 01:41:15;;;;;;;31.13;11.73;;;;;;;;;;5027006;28;20049;-78
2022/12/12 01:43:42;;;;;;;34.17;12.38;;;;;;;;;;5029562;28;20091;-77
2022/12/12 01:46:26;;;;;;;42.13;12.15;;;;;;;;;;5044765;28;20092;-77
2022/12/12 01:48:55;;;;;;;39.20;11.48;;;;;;;;;;5025395;28;20072;-79
2022/12/12 01:51:23;;;;;;;36.10;11.20;;;;;;;;;;5022852;28;20032;-77
2022/12/12 01:53:52;;;;;;;37.70;10.50;;;;;;;;;;5027771;28;20022;-78
2022/12/12 01:56:20;;;;;;;34.45;11.52;;;;;;;;;;5024608;28;20014;-78
2022/12/12 01:58:48;;;;;;;32.13;10.85;;;;;;;;;;5035604;28;20097;-78
2022/12/12 02:01:14;;;;;;;24.83;9.88;;;;;;;;;;5042142;28;20287;-77
2022/12/12 02:03:42;;;;;;;35.45;12.32;;;;;;;;;;5037299;28;20065;-78
2022/12/12 02:06:10;;;;;;;36.00;12.23;;;;;;;;;;5050372;28;20048;-78
2022/12/12 02:08:36;;;;;;;27.52;10.90;;;;;;;;;;5026988;28;20376;-77
2022/12/12 02:11:02;;;;;;;42.50;12.40;;;;;;;;;;5025840;28;20057;-78
2022/12/12 02:13:30;;;;;;;29.98;11.00;;;;;;;;;;5030961;28;20041;-77
2022/12/12 02:16:11;;;;;;;27.77;12.82;;;;;;;;;;5019866;28;20022;-77
2022/12/12 02:18:37;;;;;;;34.47;12.32;;;;;;;;;;5039222;28;20471;-77
2022/12/12 02:21:26;;;;;;;27.75;11.75;;;;;;;;;;5031328;28;20371;-77
2022/12/12 02:24:05;;;;;;;41.00;13.75;;;;;;;;;;5034640;28;20072;-77
2022/12/12 02:26:34;;;;;;;29.85;11.45;;;;;;;;;;5034702;28;20045;-77
2022/12/12 02:29:24;;;;;;;46.35;14.40;;;;;;;;;;5047516;28;20544;-77
2022/12/12 02:31:53;;;;;;;37.42;12.00;;;;;;;;;;4998459;28;20076;-78
2022/12/12 02:34:39;;;;;;;58.13;16.33;;;;;;;;;;5034298;28;20025;-77
2022/12/12 02:37:05;;;;;;;56.35;16.45;;;;;;;;;;5024535;28;20037;-76
2022/12/12 02:39:58;;;;;;;56.90;14.57;;;;;;;;;;5032231;28;20052;-78
2022/12/12 02:42:26;;;;;;;51.72;13.18;;;;;;;;;;5021955;28;20740;-78
2022/12/12 02:44:58;;;;;;;36.72;12.18;;;;;;;;;;5030675;28;20029;-77
2022/12/12 02:47:39;;;;;;;36.22;14.15;;;;;;;;;;5037174;28;20025;-79
2022/12/12 02:50:10;;;;;;;30.60;13.13;;;;;;;;;;5033962;28;20017;-77
2022/12/12 02:52:36;;;;;;;39.72;12.10;;;;;;;;;;5039180;28;20025;-77
2022/12/12 02:55:04;;;;;;;55.92;12.73;;;;;;;;;;5035404;28;20071;-77
2022/12/12 02:57:31;;;;;;;29.90;10.57;;;;;;;;;;5024940;28;20033;-77
2022/12/12 03:00:00;;;;;;;37.90;11.90;;;;;;;;;;5029060;28;20010;-78
2022/12/12 03:02:31;;;;;;;34.03;11.05;;;;;;;;;;5030213;28;20033;-78
2022/12/12 03:08:07;;;;;;;32.45;11.45;;;;;;;;;;5030651;28;20079;-77
2022/12/12 03:10:36;;;;;;;41.70;11.60;;;;;;;;;;5030695;28;20383;-78
2022/12/12 03:13:05;;;;;;;27.27;9.68;;;;;;;;;;5032954;28;20025;-78
2022/12/12 03:15:41;;;;;;;38.05;9.85;;;;;;;;;;5042961;28;20026;-78
2022/12/12 03:18:23;;;;;;;29.15;11.25;;;;;;;;;;5033125;28;20075;-78
2022/12/12 03:21:10;;;;;;;32.25;11.02;;;;;;;;;;5021680;28;20414;-77
2022/12/12 03:23:38;;;;;;;28.60;10.25;;;;;;;;;;5025125;28;20292;-78
2022/12/12 03:26:11;;;;;;;40.03;11.45;;;;;;;;;;5038839;28;20033;-78
2022/12/12 03:28:40;;;;;;;30.65;9.85;;;;;;;;;;5026577;28;20029;-76
2022/12/12 03:31:09;;;;;;;26.02;10.43;;;;;;;;;;5028598;28;20164;-78
2022/12/12 03:33:46;;;;;;;27.05;10.55;;;;;;;;;;5029708;28;20045;-77
2022/12/12 03:36:15;;;;;;;39.65;11.05;;;;;;;;;;5026613;28;20025;-77
2022/12/12 03:38:43;;;;;;;47.08;11.18;;;;;;;;;;5022937;28;20030;-78
2022/12/12 03:41:13;;;;;;;32.42;9.80;;;;;;;;;;5024377;28;20022;-79
2022/12/12 03:44:00;;;;;;;31.25;9.52;;;;;;;;;;5031345;28;20028;-77
2022/12/12 03:46:36;;;;;;;41.30;10.18;;;;;;;;;;5025509;28;20119;-77
2022/12/12 03:49:28;;;;;;;37.78;10.10;;;;;;;;;;5026504;28;20029;-78
2022/12/12 03:52:04;;;;;;;53.17;10.07;;;;;;;;;;5022310;28;20030;-78
2022/12/12 03:54:33;;;;;;;31.48;9.68;;;;;;;;;;5030500;28;20034;-78
2022/12/12 03:57:08;;;;;;;31.60;8.90;;;;;;;;;;5025264;28;20021;-78
2022/12/12 03:59:44;;;;;;;38.95;9.82;;;;;;;;;;5026413;28;20107;-78
2022/12/12 04:02:24;;;;;;;33.05;10.23;;;;;;;;;;5030494;28;20021;-78
2022/12/12 04:05:02;;;;;;;32.10;9.57;;;;;;;;;;5027857;28;20042;-78
2022/12/12 04:07:40;;;;;;;22.30;9.07;;;;;;;;;;5025826;28;20105;-77
2022/12/12 04:13:09;;;;;;;27.92;9.40;;;;;;;;;;5029916;28;20083;-78
2022/12/12 04:16:05;;;;;;;34.80;9.77;;;;;;;;;;5030333;28;20034;-79
2022/12/12 04:18:37;;;;;;;25.98;9.25;;;;;;;;;;5020841;28;20045;-78
2022/12/12 04:23:59;;;;;;;42.15;10.45;;;;;;;;;;5038022;28;20113;-78
2022/12/12 04:26:40;;;;;;;34.88;12.57;;;;;;;;;;5038038;28;20375;-78
2022/12/12 04:29:06;;;;;;;41.13;10.63;;;;;;;;;;5038225;28;20039;-78
2022/12/12 04:31:34;;;;;;;29.20;10.32;;;;;;;;;;5039900;28;20060;-79
2022/12/12 04:34:03;;;;;;;27.83;10.55;;;;;;;;;;5034675;28;20544;-77
2022/12/12 04:36:31;;;;;;;37.17;11.18;;;;;;;;;;5031912;28;20425;-77
2022/12/12 04:38:58;;;;;;;43.83;11.18;;;;;;;;;;5033829;28;20067;-79
2022/12/12 04:41:25;;;;;;;45.47;9.35;;;;;;;;;;5030539;28;20515;-78
2022/12/12 04:43:53;;;;;;;34.83;10.15;;;;;;;;;;5024111;28;20033;-78
2022/12/12 04:46:22;;;;;;;38.50;9.30;;;;;;;;;;5028331;28;20400;-77
2022/12/12 04:48:53;;;;;;;30.05;10.43;;;;;;;;;;5023689;28;20133;-78
2022/12/12 04:51:37;;;;;;;49.92;11.65;;;;;;;;;;5028283;28;20037;-77
2022/12/12 04:54:12;;;;;;;45.10;10.25;;;;;;;;;;5024932;28;20033;-78
2022/12/12 04:56:40;;;;;;;69.80;12.82;;;;;;;;;;5028849;28;20097;-76
2022/12/12 04:59:07;;;;;;;34.50;8.90;;;;;;;;;;5026801;28;20021;-84
2022/12/12 05:01:42;;;;;;;30.35;9.00;;;;;;;;;;5025090;28;20033;-79
2022/12/12 05:04:12;;;;;;;31.58;10.73;;;;;;;;;;5024849;28;20022;-78
2022/12/12 05:06:48;;;;;;;29.55;10.57;;;;;;;;;;5031060;28;20021;-78
2022/12/12 05:09:15;;;;;;;33.08;9.68;;;;;;;;;;5023989;28;20022;-78
2022/12/12 05:11:42;;;;;;;54.28;10.90;;;;;;;;;;5025437;28;20167;-79
2022/12/12 05:14:08;;;;;;;26.55;9.68;;;;;;;;;;5021556;28;20037;-78
2022/12/12 05:16:41;;;;;;;39.50;11.45;;;;;;;;;;5037355;28;20025;-78
2022/12/12 05:19:07;;;;;;;40.10;9.77;;;;;;;;;;5023385;28;20029;-79
2022/12/12 05:21:33;;;;;;;47.20;11.15;;;;;;;;;;5029703;28;20095;-77
2022/12/12 05:23:59;;;;;;;30.75;9.00;;;;;;;;;;5028179;28;20384;-78
2022/12/12 05:26:27;;;;;;;33.35;9.25;;;;;;;;;;5029485;28;20407;-77
2022/12/12 05:28:53;;;;;;;43.15;10.15;;;;;;;;;;5028232;28;20029;-78
2022/12/12 05:31:19;;;;;;;39.03;9.75;;;;;;;;;;5029765;28;20092;-78
2022/12/12 05:33:45;;;;;;;36.80;9.63;;;;;;;;;;5021347;28;20029;-77
2022/12/12 05:36:12;;;;;;;48.65;10.00;;;;;;;;;;5024124;28;20025;-78
2022/12/12 05:38:39;;;;;;;42.30;9.30;;;;;;;;;;5028182;28;20475;-79
2022/12/12 05:41:05;;;;;;;33.60;8.80;;;;;;;;;;5029605;28;20481;-77
2022/12/12 05:43:31;;;;;;;32.65;7.22;;;;;;;;;;5028117;28;20124;-78
2022/12/12 05:45:57;;;;;;;27.02;7.63;;;;;;;;;;5038121;28;20033;-81
2022/12/12 05:48:23;;;;;;;57.30;10.18;;;;;;;;;;5028732;28;20033;-78
2022/12/12 05:50:50;;;;;;;30.67;9.18;;;;;;;;;;5028004;28;20029;-78
2022/12/12 05:53:16;;;;;;;27.30;8.27;;;;;;;;;;5034718;28;20029;-78
2022/12/12 05:55:42;;;;;;;37.55;10.43;;;;;;;;;;5029653;28;20029;-79
2022/12/12 05:58:08;;;;;;;28.33;8.40;;;;;;;;;;5026156;28;20446;-78
2022/12/12 06:00:36;;;;;;;38.15;10.35;;;;;;;;;;5043558;28;20052;-78
2022/12/12 06:03:03;;;;;;;24.83;8.60;;;;;;;;;;5036020;28;20037;-78
2022/12/12 06:05:29;;;;;;;34.83;9.40;;;;;;;;;;5027385;28;20060;-78
2022/12/12 06:07:55;;;;;;;35.45;10.52;;;;;;;;;;5033624;28;20030;-77
2022/12/12 06:10:21;;;;;;;46.75;9.30;;;;;;;;;;5033275;28;20026;-78
2022/12/12 06:12:47;;;;;;;31.13;8.57;;;;;;;;;;5035841;28;20013;-78
2022/12/12 06:15:13;;;;;;;32.88;9.05;;;;;;;;;;5045931;28;20064;-79
2022/12/12 06:17:39;;;;;;;39.08;9.07;;;;;;;;;;5043027;28;20116;-79
2022/12/12 06:20:06;;;;;;;48.88;10.38;;;;;;;;;;5032951;28;20478;-77
2022/12/12 06:22:33;;;;;;;47.38;8.43;;;;;;;;;;5033670;28;20079;-81
2022/12/12 06:24:59;;;;;;;80.75;11.32;;;;;;;;;;5034372;28;20076;-79
2022/12/12 06:27:25;;;;;;;34.05;9.45;;;;;;;;;;5047137;28;20037;-80
2022/12/12 06:29:51;;;;;;;82.55;10.88;;;;;;;;;;5051066;28;20133;-79
2022/12/12 06:32:17;;;;;;;45.10;9.05;;;;;;;;;;5033606;28;20104;-82
2022/12/12 06:34:43;;;;;;;71.40;10.60;;;;;;;;;;5044529;28;20036;-77
2022/12/12 06:37:09;;;;;;;74.95;10.27;;;;;;;;;;5029211;28;20471;-78
2022/12/12 06:39:36;;;;;;;49.47;9.40;;;;;;;;;;5025649;28;20317;-77
2022/12/12 06:42:02;;;;;;;125.57;13.30;;;;;;;;;;5031000;28;20021;-78
2022/12/12 06:44:28;;;;;;;96.82;11.82;;;;;;;;;;5032609;28;20022;-77
2022/12/12 06:46:54;;;;;;;41.08;8.05;;;;;;;;;;5042640;28;20029;-79
2022/12/12 06:49:20;;;;;;;45.92;9.43;;;;;;;;;;5047562;28;20018;-78
2022/12/12 06:51:47;;;;;;;86.57;10.13;;;;;;;;;;5031354;28;20036;-78
2022/12/12 06:54:15;;;;;;;56.17;8.35;;;;;;;;;;5031923;28;20029;-78
2022/12/12 06:56:41;;;;;;;69.55;10.90;;;;;;;;;;5030716;28;20029;-78
2022/12/12 06:59:07;;;;;;;45.58;9.50;;;;;;;;;;5027417;28;20028;-79
2022/12/12 07:01:33;;;;;;;49.10;9.68;;;;;;;;;;5032328;28;20025;-78
2022/12/12 07:03:59;;;;;;;48.28;8.95;;;;;;;;;;5031095;28;20034;-78
2022/12/12 07:06:25;;;;;;;31.48;8.07;;;;;;;;;;5028671;28;20487;-79
2022/12/12 07:08:52;;;;;;;42.95;9.52;;;;;;;;;;5036618;28;20034;-78
2022/12/12 07:11:22;;;;;;;49.45;11.00;;;;;;;;;;5031922;28;20056;-78
2022/12/12 07:13:49;;;;;;;66.72;10.25;;;;;;;;;;5031104;28;20025;-78
2022/12/12 07:16:15;;;;;;;30.65;9.13;;;;;;;;;;5033520;28;20018;-77
2022/12/12 07:18:41;;;;;;;38.72;8.18;;;;;;;;;;5029124;28;20388;-78
2022/12/12 07:21:08;;;;;;;33.75;8.18;;;;;;;;;;5029732;28;20021;-78
2022/12/12 07:23:35;;;;;;;50.47;9.65;;;;;;;;;;5031858;28;20438;-78
2022/12/12 07:26:05;;;;;;;30.95;8.65;;;;;;;;;;5037902;28;20024;-77
2022/12/12 07:28:31;;;;;;;53.67;10.15;;;;;;;;;;5034681;28;20029;-78
2022/12/12 07:30:57;;;;;;;50.25;9.43;;;;;;;;;;5031914;28;20064;-79
2022/12/12 07:33:23;;;;;;;51.95;8.52;;;;;;;;;;5031252;28;20025;-78
2022/12/12 07:35:49;;;;;;;65.13;10.93;;;;;;;;;;5031645;28;20032;-78
2022/12/12 07:38:15;;;;;;;63.65;9.25;;;;;;;;;;5030841;28;20063;-78
2022/12/12 07:40:41;;;;;;;81.35;12.73;;;;;;;;;;5038097;28;20037;-78
2022/12/12 07:43:08;;;;;;;47.33;7.35;;;;;;;;;;5046109;28;20029;-78
2022/12/12 07:45:34;;;;;;;76.90;11.55;;;;;;;;;;5032840;28;20021;-78
2022/12/12 07:48:00;;;;;;;54.78;9.50;;;;;;;;;;5034411;28;20041;-77
2022/12/12 07:50:26;;;;;;;84.43;11.45;;;;;;;;;;5027266;28;20133;-77
2022/12/12 07:52:52;;;;;;;59.10;9.80;;;;;;;;;;5028555;28;20451;-78
2022/12/12 07:55:18;;;;;;;62.88;11.30;;;;;;;;;;5032268;28;20063;-78
2022/12/12 07:57:44;;;;;;;56.97;9.55;;;;;;;;;;5028832;28;20030;-79
2022/12/12 08:00:13;;;;;;;67.15;9.90;;;;;;;;;;5031392;28;20487;-77
2022/12/12 08:02:40;;;;;;;80.15;10.85;;;;;;;;;;5033010;28;20033;-78
2022/12/12 08:05:06;;;;;;;86.43;11.10;;;;;;;;;;5026645;28;20048;-77
2022/12/12 08:07:32;;;;;;;78.50;10.80;;;;;;;;;;5024030;28;20037;-78
2022/12/12 08:09:58;;;;;;;40.80;9.63;;;;;;;;;;5033524;28;20021;-78
2022/12/12 08:12:24;;;;;;;63.83;9.88;;;;;;;;;;5038527;28;20029;-77
2022/12/12 08:14:50;;;;;;;58.97;9.98;;;;;;;;;;5051914;28;20091;-78
2022/12/12 08:17:16;;;;;;;47.63;7.97;;;;;;;;;;5051058;28;20050;-80
2022/12/12 08:19:42;;;;;;;46.22;9.65;;;;;;;;;;5051343;28;20026;-78
2022/12/12 08:22:09;;;;;;;64.70;11.05;;;;;;;;;;5049446;28;20033;-77
2022/12/12 08:24:35;;;;;;;70.18;9.38;;;;;;;;;;5031794;28;20037;-78
2022/12/12 08:27:01;;;;;;;56.72;9.95;;;;;;;;;;5032162;28;20105;-77
2022/12/12 08:29:27;;;;;;;48.85;9.15;;;;;;;;;;5029100;28;20101;-77
2022/12/12 08:31:53;;;;;;;91.80;10.82;;;;;;;;;;5028611;28;20071;-78
2022/12/12 08:34:19;;;;;;;66.25;9.93;;;;;;;;;;5032158;28;20036;-77
2022/12/12 08:36:46;;;;;;;52.58;10.93;;;;;;;;;;5026497;28;20041;-77
2022/12/12 08:39:14;;;;;;;75.28;11.02;;;;;;;;;;5043746;28;20049;-79
2022/12/12 08:41:42;;;;;;;79.50;11.85;;;;;;;;;;5041731;28;20052;-78
2022/12/12 08:44:10;;;;;;;48.55;10.23;;;;;;;;;;5022589;28;20053;-78
2022/12/12 08:46:36;;;;;;;69.55;10.88;;;;;;;;;;5030829;28;20025;-78
2022/12/12 08:49:02;;;;;;;52.58;8.90;;;;;;;;;;5040202;28;20418;-78
2022/12/12 08:51:28;;;;;;;31.13;8.30;;;;;;;;;;5032911;28;20059;-78
2022/12/12 08:53:54;;;;;;;47.67;8.48;;;;;;;;;;5025722;28;20492;-77
2022/12/12 08:56:21;;;;;;;58.92;10.05;;;;;;;;;;5032231;28;20031;-77
2022/12/12 08:58:47;;;;;;;45.08;9.15;;;;;;;;;;5042533;28;20025;-78
2022/12/12 09:01:15;;;;;;;39.05;8.38;;;;;;;;;;5034204;28;20017;-78
2022/12/12 09:03:41;;;;;;;44.90;8.77;;;;;;;;;;5030484;28;20045;-78
2022/12/12 09:06:09;;;;;;;40.38;9.13;;;;;;;;;;5029224;28;20033;-77
2022/12/12 09:08:35;;;;;;;60.15;10.48;;;;;;;;;;5031611;28;20464;-78
2022/12/12 09:11:01;;;;;;;41.03;9.55;;;;;;;;;;5037990;28;20029;-77
2022/12/12 09:13:27;;;;;;;40.92;9.60;;;;;;;;;;5035865;28;20033;-78
2022/12/12 09:15:57;;;;;;;68.50;10.57;;;;;;;;;;5036702;28;20593;-79
2022/12/12 09:18:24;;;;;;;41.78;8.30;;;;;;;;;;5043611;28;20025;-78
2022/12/12 09:20:51;;;;;;;77.50;10.68;;;;;;;;;;5028245;28;20022;-78
2022/12/12 09:23:17;;;;;;;68.38;10.20;;;;;;;;;;5028933;28;20027;-79
2022/12/12 09:25:43;;;;;;;41.88;8.35;;;;;;;;;;5037060;28;20563;-78
2022/12/12 09:28:14;;;;;;;50.67;9.18;;;;;;;;;;5029028;28;20025;-77
2022/12/12 09:30:40;;;;;;;85.10;10.05;;;;;;;;;;5033792;28;20050;-78
2022/12/12 09:33:06;;;;;;;61.15;9.95;;;;;;;;;;5031470;28;20037;-77
2022/12/12 09:35:32;;;;;;;74.13;11.27;;;;;;;;;;5029216;28;20837;-78
2022/12/12 09:37:58;;;;;;;61.97;9.57;;;;;;;;;;5027501;28;20022;-78
2022/12/12 09:40:29;;;;;;;51.78;9.00;;;;;;;;;;5043980;28;20036;-78
2022/12/12 09:42:55;;;;;;;53.50;9.32;;;;;;;;;;5047052;28;20021;-78
2022/12/12 09:45:22;;;;;;;56.60;9.63;;;;;;;;;;5037956;28;20077;-79
2022/12/12 09:47:50;;;;;;;29.98;8.55;;;;;;;;;;5066541;28;20054;-78
2022/12/12 09:50:29;;;;;;;36.60;10.32;;;;;;;;;;5027958;28;20128;-78
2022/12/12 09:52:56;;;;;;;59.35;11.27;;;;;;;;;;5032822;28;20061;-78
2022/12/12 09:55:45;;;;;;;42.35;10.10;;;;;;;;;;5036359;28;20026;-78
2022/12/12 09:58:41;;;;;;;34.85;9.48;;;;;;;;;;5027982;28;20040;-77
2022/12/12 10:01:14;;;;;;;45.30;9.73;;;;;;;;;;5012343;28;20048;-77
2022/12/12 10:03:48;;;;;;;88.28;12.30;;;;;;;;;;5021079;28;20440;-78
2022/12/12 10:06:14;;;;;;;45.03;8.80;;;;;;;;;;5031913;28;20037;-77
2022/12/12 10:09:02;;;;;;;64.82;9.18;;;;;;;;;;5042271;28;20159;-78
2022/12/12 10:14:17;;;;;;;42.40;8.15;;;;;;;;;;5030456;28;20037;-78
2022/12/12 10:16:43;;;;;;;31.73;7.72;;;;;;;;;;5027178;28;20101;-77
2022/12/12 10:19:14;;;;;;;34.63;7.47;;;;;;;;;;5034353;28;20017;-77
2022/12/12 10:21:40;;;;;;;33.90;8.50;;;;;;;;;;5034016;28;20025;-78
2022/12/12 10:24:16;;;;;;;36.85;8.95;;;;;;;;;;5040729;28;20092;-78
2022/12/12 10:26:42;;;;;;;28.80;9.35;;;;;;;;;;5033898;28;20029;-77
2022/12/12 10:29:14;;;;;;;26.85;7.20;;;;;;;;;;5039296;28;20025;-78
2022/12/12 10:31:46;;;;;;;40.80;9.13;;;;;;;;;;5043047;28;20049;-77
2022/12/12 10:34:21;;;;;;;39.80;9.40;;;;;;;;;;5039952;28;20369;-78
2022/12/12 10:36:53;;;;;;;31.33;7.93;;;;;;;;;;5031232;28;20021;-77
2022/12/12 10:39:22;;;;;;;67.00;11.10;;;;;;;;;;5035518;28;20022;-77
2022/12/12 10:41:59;;;;;;;51.08;10.00;;;;;;;;;;5043349;28;20017;-78
2022/12/12 10:44:43;;;;;;;37.03;9.75;;;;;;;;;;5055626;28;20026;-78
2022/12/12 10:47:11;;;;;;;33.28;9.55;;;;;;;;;;5052835;28;20037;-78
2022/12/12 10:49:38;;;;;;;36.35;9.30;;;;;;;;;;5054945;28;20048;-78
2022/12/12 10:52:06;;;;;;;35.67;9.43;;;;;;;;;;5047515;28;20036;-77
2022/12/12 10:54:36;;;;;;;69.78;12.40;;;;;;;;;;5032542;28;20068;-77
2022/12/12 10:57:08;;;;;;;55.80;12.27;;;;;;;;;;5042176;28;20022;-78
2022/12/12 10:59:41;;;;;;;73.88;13.57;;;;;;;;;;5040475;28;20028;-77
2022/12/12 11:02:20;;;;;;;51.55;11.15;;;;;;;;;;5039647;28;20033;-77
2022/12/12 11:04:46;;;;;;;43.72;10.98;;;;;;;;;;5042795;28;20082;-79
2022/12/12 11:07:19;;;;;;;21.35;8.85;;;;;;;;;;5051094;28;20009;-81
2022/12/12 11:09:46;;;;;;;30.58;8.57;;;;;;;;;;5047347;28;20032;-80
2022/12/12 11:12:13;;;;;;;46.75;9.48;;;;;;;;;;5048326;28;20010;-78
2022/12/12 11:14:44;;;;;;;28.25;7.65;;;;;;;;;;5040141;28;20033;-78
2022/12/12 11:17:19;;;;;;;43.97;8.48;;;;;;;;;;5054177;28;20085;-78
2022/12/12 11:19:45;;;;;;;33.78;7.63;;;;;;;;;;5041424;28;20009;-77
2022/12/12 11:22:12;;;;;;;58.67;9.98;;;;;;;;;;5051921;28;20029;-77
2022/12/12 11:24:40;;;;;;;37.38;8.75;;;;;;;;;;5031787;28;20060;-78
2022/12/12 11:27:07;;;;;;;70.60;10.23;;;;;;;;;;5030937;28;20040;-77
2022/12/12 11:29:33;;;;;;;38.20;9.07;;;;;;;;;;5033829;28;20124;-78
2022/12/12 11:31:59;;;;;;;17.40;9.07;;;;;;;;;;5040044;28;20124;-75
2022/12/12 11:34:28;;;;;;;38.05;10.20;;;;;;;;;;5046806;28;20038;-78
2022/12/12 11:36:55;;;;;;;32.20;9.60;;;;;;;;;;5055201;28;20052;-79
2022/12/12 11:39:22;;;;;;;45.60;10.50;;;;;;;;;;5049063;28;20032;-78
2022/12/12 11:41:59;;;;;;;47.90;9.00;;;;;;;;;;5040230;28;20033;-79
2022/12/12 11:44:30;;;;;;;34.30;8.90;;;;;;;;;;5040514;28;20026;-77
2022/12/12 11:46:56;;;;;;;46.60;9.82;;;;;;;;;;5036302;28;20410;-77
2022/12/12 11:49:22;;;;;;;38.60;8.27;;;;;;;;;;5047658;28;20018;-78
2022/12/12 11:51:48;;;;;;;55.45;10.77;;;;;;;;;;5029274;28;20443;-77
2022/12/12 11:54:17;;;;;;;52.85;8.43;;;;;;;;;;5040117;28;20036;-76
2022/12/12 11:56:46;;;;;;;74.50;11.65;;;;;;;;;;5048288;28;20027;-79
2022/12/12 11:59:12;;;;;;;41.80;12.23;;;;;;;;;;5045944;28;20095;-75
2022/12/12 12:01:47;;;;;;;75.93;11.90;;;;;;;;;;5050820;28;20484;-77
2022/12/12 12:04:28;;;;;;;70.20;11.40;;;;;;;;;;5042140;28;20033;-77
2022/12/12 12:07:24;;;;;;;41.17;8.63;;;;;;;;;;5039600;28;20514;-78
2022/12/12 12:09:53;;;;;;;32.40;8.93;;;;;;;;;;5022208;28;20523;-77
2022/12/12 12:12:42;;;;;;;113.65;13.18;;;;;;;;;;5036938;28;20033;-77
2022/12/12 12:15:41;;;;;;;39.83;9.02;;;;;;;;;;5037972;28;20052;-78
2022/12/12 12:18:07;;;;;;;55.53;8.98;;;;;;;;;;5013796;28;20037;-78
2022/12/12 12:20:33;;;;;;;48.97;8.75;;;;;;;;;;5061035;28;20022;-77
2022/12/12 12:23:02;;;;;;;42.17;9.15;;;;;;;;;;5038603;28;20419;-77
2022/12/12 12:25:31;;;;;;;59.88;10.40;;;;;;;;;;5037937;28;20037;-79
2022/12/12 12:28:06;;;;;;;83.38;13.23;;;;;;;;;;5059808;28;20399;-80
2022/12/12 12:30:42;;;;;;;53.67;11.57;;;;;;;;;;5033426;28;20037;-78
2022/12/12 12:33:22;;;;;;;55.90;12.27;;;;;;;;;;5041912;28;20131;-78
2022/12/12 12:36:00;;;;;;;38.25;11.80;;;;;;;;;;5041285;28;20013;-77
2022/12/12 12:38:36;;;;;;;37.45;11.20;;;;;;;;;;5059615;28;20116;-81
2022/12/12 12:41:14;;;;;;;32.95;13.25;;;;;;;;;;5057028;28;20021;-78
2022/12/12 12:43:49;;;;;;;36.17;12.38;;;;;;;;;;5041530;28;20407;-79
2022/12/12 12:46:31;;;;;;;63.42;13.50;;;;;;;;;;5040191;28;20491;-78
2022/12/12 12:49:04;;;;;;;40.53;11.32;;;;;;;;;;5045406;28;20626;-80
2022/12/12 12:51:36;;;;;;;28.38;10.45;;;;;;;;;;5040370;28;20034;-80
2022/12/12 12:54:05;;;;;;;29.73;11.25;;;;;;;;;;5054681;28;20029;-76
2022/12/12 12:56:32;;;;;;;40.63;11.10;;;;;;;;;;5068389;28;20029;-77
2022/12/12 12:59:02;;;;;;;21.20;9.90;;;;;;;;;;5039431;28;20032;-78
2022/12/12 13:01:31;;;;;;;24.40;10.00;;;;;;;;;;5029364;28;20041;-77
2022/12/12 13:04:09;;;;;;;18.00;9.40;;;;;;;;;;5036153;28;20025;-78
2022/12/12 13:06:39;;;;;;;25.00;10.15;;;;;;;;;;5034049;28;20499;-79
2022/12/12 13:09:05;;;;;;;28.95;10.73;;;;;;;;;;5038245;28;20021;-78
2022/12/12 13:11:42;;;;;;;24.08;9.57;;;;;;;;;;5041754;28;20061;-76
2022/12/12 13:14:26;;;;;;;24.80;11.35;;;;;;;;;;5040355;28;20033;-77
2022/12/12 13:16:53;;;;;;;18.73;9.57;;;;;;;;;;5034298;28;20029;-77
2022/12/12 13:19:34;;;;;;;36.10;11.93;;;;;;;;;;5039068;28;20112;-78
2022/12/12 13:22:05;;;;;;;49.88;13.20;;;;;;;;;;5041139;28;20495;-77
2022/12/12 13:24:39;;;;;;;45.88;14.75;;;;;;;;;;5045634;28;20040;-77
2022/12/12 13:27:14;;;;;;;52.95;16.02;;;;;;;;;;5039458;28;20671;-77
2022/12/12 13:29:47;;;;;;;39.15;14.07;;;;;;;;;;5049170;28;20055;-77
2022/12/12 13:32:25;;;;;;;29.25;12.82;;;;;;;;;;5040919;28;20075;-77
2022/12/12 13:34:54;;;;;;;30.23;11.80;;;;;;;;;;5026996;28;20026;-79
2022/12/12 13:37:21;;;;;;;39.63;17.98;;;;;;;;;;5035022;28;20018;-77
2022/12/12 13:39:57;;;;;;;35.45;18.02;;;;;;;;;;5045849;28;20036;-78
2022/12/12 13:42:23;;;;;;;29.42;14.18;;;;;;;;;;5051461;28;20064;-78
2022/12/12 13:44:49;;;;;;;25.48;13.00;;;;;;;;;;5038311;28;20013;-77
2022/12/12 13:47:21;;;;;;;35.15;13.48;;;;;;;;;;5053728;28;20033;-78
2022/12/12 13:49:52;;;;;;;30.45;13.48;;;;;;;;;;5033626;28;20038;-79
2022/12/12 13:52:32;;;;;;;37.60;14.57;;;;;;;;;;5047526;28;20044;-77
2022/12/12 13:55:11;;;;;;;46.90;15.95;;;;;;;;;;5055047;28;20029;-79
2022/12/12 13:58:08;;;;;;;36.25;14.35;;;;;;;;;;5040707;28;20017;-77
2022/12/12 14:00:38;;;;;;;38.63;14.80;;;;;;;;;;5040494;28;20472;-76
2022/12/12 14:03:24;;;;;;;35.50;14.73;;;;;;;;;;5050752;28;20029;-78
2022/12/12 14:05:52;;;;;;;55.13;16.80;;;;;;;;;;5042035;28;20147;-76
2022/12/12 14:08:18;;;;;;;40.28;13.93;;;;;;;;;;5040136;28;20057;-77
2022/12/12 14:11:01;;;;;;;47.28;15.05;;;;;;;;;;5052574;28;20142;-77
2022/12/12 14:13:33;;;;;;;49.00;16.23;;;;;;;;;;5048129;28;20037;-76
2022/12/12 14:16:05;;;;;;;61.13;20.05;;;;;;;;;;5056550;28;20021;-77
2022/12/12 14:18:37;;;;;;;52.58;16.50;;;;;;;;;;5038508;28;20057;-76
2022/12/12 14:21:13;;;;;;;50.70;15.35;;;;;;;;;;5045019;28;20021;-79
2022/12/12 14:23:44;;;;;;;43.80;14.05;;;;;;;;;;5044699;28;20038;-76
2022/12/12 14:26:28;;;;;;;100.32;21.20;;;;;;;;;;5047724;28;20450;-77
2022/12/12 14:29:13;;;;;;;79.63;21.42;;;;;;;;;;5050573;28;20020;-79
2022/12/12 14:31:41;;;;;;;50.10;17.17;;;;;;;;;;5044398;28;20049;-76
2022/12/12 14:34:17;;;;;;;40.88;15.80;;;;;;;;;;5052462;28;20116;-76
2022/12/12 14:36:51;;;;;;;66.03;13.88;;;;;;;;;;5036748;28;20029;-77
2022/12/12 14:39:35;;;;;;;65.60;15.35;;;;;;;;;;5053090;28;20112;-79
2022/12/12 14:42:05;;;;;;;80.85;20.02;;;;;;;;;;5063178;23;20070;-78
2022/12/12 14:44:31;;;;;;;78.20;18.10;;;;;;;;;;5032355;28;20444;-77
2022/12/12 14:46:58;;;;;;;75.05;19.02;;;;;;;;;;5174140;22;20122;-79
2022/12/12 14:49:25;;;;;;;71.82;22.05;;;;;;;;;;5271465;22;20045;-81